Time,TemperatureF,DewpointF,PressureIn,WindDirection,WindDirectionDegrees,WindSpeedMPH,WindSpeedGustMPH,Humidity,HourlyPrecipIn,Conditions,Clouds,dailyrainin,SoftwareType,DateUTC
2013-02-10 00:00:00,12.7,5.7,29.83,NW,324,0.0,0.0,73,0.00,,,0.00,VWS V14.01,2013-02-10 05:00:00,
2013-02-10 00:05:00,12.6,5.6,29.83,NW,324,0.0,0.0,73,0.00,,,0.00,VWS V14.01,2013-02-10 05:05:00,
2013-02-10 00:10:00,12.6,5.6,29.83,NW,323,0.0,0.0,73,0.00,,,0.00,VWS V14.01,2013-02-10 05:10:00,
2013-02-10 00:15:00,12.6,5.6,29.83,NW,319,0.0,0.0,73,0.00,,,0.00,VWS V14.01,2013-02-10 05:15:00,
2013-02-10 00:20:00,12.7,5.7,29.83,NW,314,0.0,0.0,73,0.00,,,0.00,VWS V14.01,2013-02-10 05:20:00,
2013-02-10 00:25:00,12.7,5.7,29.83,NW,314,0.0,0.0,73,0.00,,,0.00,VWS V14.01,2013-02-10 05:25:00,
2013-02-10 00:30:00,12.7,5.7,29.83,ESE,108,0.0,0.0,73,0.00,,,0.00,VWS V14.01,2013-02-10 05:30:00,
2013-02-10 00:35:00,12.6,5.6,29.83,North,357,0.0,0.0,73,0.00,,,0.00,VWS V14.01,2013-02-10 05:35:00,
2013-02-10 00:40:00,12.4,5.4,29.83,North,357,0.0,0.0,73,0.00,,,0.00,VWS V14.01,2013-02-10 05:40:00,
2013-02-10 00:45:00,12.4,5.4,29.85,NW,317,0.0,0.0,73,0.00,,,0.00,VWS V14.01,2013-02-10 05:45:00,
2013-02-10 00:50:00,12.4,5.4,29.85,East,86,0.0,0.0,73,0.00,,,0.00,VWS V14.01,2013-02-10 05:50:00,
2013-02-10 00:55:00,12.2,5.2,29.85,East,86,0.0,0.0,73,0.00,,,0.00,VWS V14.01,2013-02-10 05:55:00,
2013-02-10 01:00:00,12.2,5.2,29.83,East,100,0.0,0.0,73,0.00,,,0.00,VWS V14.01,2013-02-10 06:00:00,
2013-02-10 01:05:00,12.0,5.0,29.83,East,100,0.0,0.0,73,0.00,,,0.00,VWS V14.01,2013-02-10 06:05:00,
2013-02-10 01:10:00,12.0,5.0,29.85,East,100,0.0,0.0,73,0.00,,,0.00,VWS V14.01,2013-02-10 06:10:00,
2013-02-10 01:15:00,12.0,5.0,29.85,East,100,0.0,0.0,73,0.00,,,0.00,VWS V14.01,2013-02-10 06:15:00,
2013-02-10 01:20:00,11.8,4.9,29.85,NNE,18,0.0,0.0,73,0.00,,,0.00,VWS V14.01,2013-02-10 06:20:00,
2013-02-10 01:25:00,12.0,5.0,29.85,North,6,0.0,0.0,73,0.00,,,0.00,VWS V14.01,2013-02-10 06:25:00,
2013-02-10 01:30:00,12.0,5.0,29.85,WSW,257,0.0,0.0,73,0.00,,,0.00,VWS V14.01,2013-02-10 06:30:00,
2013-02-10 01:35:00,12.0,5.0,29.85,WSW,257,0.0,0.0,73,0.00,,,0.00,VWS V14.01,2013-02-10 06:35:00,
2013-02-10 01:40:00,12.0,5.0,29.85,WSW,257,0.0,0.0,73,0.00,,,0.00,VWS V14.01,2013-02-10 06:40:00,
2013-02-10 01:45:00,12.0,5.0,29.85,WSW,257,0.0,0.0,73,0.00,,,0.00,VWS V14.01,2013-02-10 06:45:00,
2013-02-10 01:50:00,12.0,5.0,29.85,WSW,257,0.0,0.0,73,0.00,,,0.00,VWS V14.01,2013-02-10 06:50:00,
2013-02-10 01:55:00,12.2,5.2,29.85,WSW,257,0.0,0.0,73,0.00,,,0.00,VWS V14.01,2013-02-10 06:55:00,
2013-02-10 02:00:00,12.4,5.4,29.85,WSW,257,0.0,0.0,73,0.00,,,0.00,VWS V14.01,2013-02-10 07:00:00,
2013-02-10 02:05:00,12.6,5.6,29.85,WSW,257,0.0,0.0,73,0.00,,,0.00,VWS V14.01,2013-02-10 07:05:00,
2013-02-10 02:10:00,12.6,5.6,29.85,WSW,257,0.0,0.0,73,0.00,,,0.00,VWS V14.01,2013-02-10 07:10:00,
2013-02-10 02:15:00,12.4,5.4,29.85,WSW,257,0.0,0.0,73,0.00,,,0.00,VWS V14.01,2013-02-10 07:15:00,
2013-02-10 02:20:00,12.2,5.2,29.85,WSW,257,0.0,0.0,73,0.00,,,0.00,VWS V14.01,2013-02-10 07:20:00,
2013-02-10 02:25:00,12.2,5.2,29.88,SW,230,0.0,0.0,73,0.00,,,0.00,VWS V14.01,2013-02-10 07:25:00,
2013-02-10 02:30:00,12.4,5.4,29.88,SW,230,0.0,0.0,73,0.00,,,0.00,VWS V14.01,2013-02-10 07:30:00,
2013-02-10 02:35:00,12.2,5.2,29.88,SW,230,0.0,0.0,73,0.00,,,0.00,VWS V14.01,2013-02-10 07:35:00,
2013-02-10 02:40:00,12.2,5.2,29.88,SW,230,0.0,0.0,73,0.00,,,0.00,VWS V14.01,2013-02-10 07:40:00,
2013-02-10 02:45:00,12.2,5.2,29.88,SW,230,0.0,0.0,73,0.00,,,0.00,VWS V14.01,2013-02-10 07:45:00,
2013-02-10 02:50:00,12.0,5.0,29.88,SW,230,0.0,0.0,73,0.00,,,0.00,VWS V14.01,2013-02-10 07:50:00,
2013-02-10 02:55:00,12.0,5.0,29.88,SW,230,0.0,0.0,73,0.00,,,0.00,VWS V14.01,2013-02-10 07:55:00,
2013-02-10 03:00:00,12.0,5.0,29.88,SW,230,0.0,0.0,73,0.00,,,0.00,VWS V14.01,2013-02-10 08:00:00,
2013-02-10 03:05:00,12.0,5.0,29.88,SW,230,0.0,0.0,73,0.00,,,0.00,VWS V14.01,2013-02-10 08:05:00,
2013-02-10 03:10:00,12.0,5.0,29.88,SW,230,0.0,0.0,73,0.00,,,0.00,VWS V14.01,2013-02-10 08:10:00,
2013-02-10 03:15:00,12.0,5.0,29.88,NW,316,0.0,0.0,73,0.00,,,0.00,VWS V14.01,2013-02-10 08:15:00,
2013-02-10 03:20:00,11.8,4.9,29.88,NW,316,0.0,0.0,73,0.00,,,0.00,VWS V14.01,2013-02-10 08:20:00,
2013-02-10 03:25:00,11.7,4.7,29.88,NW,316,0.0,0.0,73,0.00,,,0.00,VWS V14.01,2013-02-10 08:25:00,
2013-02-10 03:30:00,11.5,4.5,29.88,NW,316,0.0,0.0,73,0.00,,,0.00,VWS V14.01,2013-02-10 08:30:00,
2013-02-10 03:35:00,11.3,4.3,29.88,NW,316,0.0,0.0,73,0.00,,,0.00,VWS V14.01,2013-02-10 08:35:00,
2013-02-10 03:40:00,11.1,4.2,29.88,NW,316,0.0,0.0,73,0.00,,,0.00,VWS V14.01,2013-02-10 08:40:00,
2013-02-10 03:45:00,10.9,4.0,29.88,NW,316,0.0,0.0,73,0.00,,,0.00,VWS V14.01,2013-02-10 08:45:00,
2013-02-10 03:50:00,10.8,3.8,29.88,NW,316,0.0,0.0,73,0.00,,,0.00,VWS V14.01,2013-02-10 08:50:00,
2013-02-10 03:55:00,10.8,3.8,29.88,NW,316,0.0,0.0,73,0.00,,,0.00,VWS V14.01,2013-02-10 08:55:00,
2013-02-10 04:00:00,10.8,3.8,29.88,NW,316,0.0,0.0,73,0.00,,,0.00,VWS V14.01,2013-02-10 09:00:00,
2013-02-10 04:05:00,9.3,2.4,29.88,NW,308,0.0,0.0,73,0.00,,,0.00,VWS V14.01,2013-02-10 09:05:00,
2013-02-10 04:10:00,8.8,1.9,29.88,NW,308,0.0,0.0,73,0.00,,,0.00,VWS V14.01,2013-02-10 09:10:00,
2013-02-10 04:15:00,8.4,1.6,29.88,NW,308,0.0,0.0,73,0.00,,,0.00,VWS V14.01,2013-02-10 09:15:00,
2013-02-10 04:20:00,8.1,1.2,29.88,NW,308,0.0,0.0,73,0.00,,,0.00,VWS V14.01,2013-02-10 09:20:00,
2013-02-10 04:25:00,8.1,1.2,29.88,NW,308,0.0,0.0,73,0.00,,,0.00,VWS V14.01,2013-02-10 09:25:00,
2013-02-10 04:30:00,7.5,0.7,29.88,NW,308,0.0,0.0,73,0.00,,,0.00,VWS V14.01,2013-02-10 09:30:00,
2013-02-10 04:35:00,7.3,0.5,29.88,NW,308,0.0,0.0,73,0.00,,,0.00,VWS V14.01,2013-02-10 09:35:00,
2013-02-10 04:40:00,6.8,0.0,29.88,NW,308,0.0,0.0,73,0.00,,,0.00,VWS V14.01,2013-02-10 09:40:00,
2013-02-10 04:45:00,6.8,0.0,29.88,NW,308,0.0,0.0,73,0.00,,,0.00,VWS V14.01,2013-02-10 09:45:00,
2013-02-10 04:50:00,6.8,0.0,29.88,NW,308,0.0,0.0,73,0.00,,,0.00,VWS V14.01,2013-02-10 09:50:00,
2013-02-10 04:55:00,5.9,-0.9,29.91,NW,308,0.0,0.0,73,0.00,,,0.00,VWS V14.01,2013-02-10 09:55:00,
2013-02-10 05:00:00,5.5,-1.2,29.91,NW,308,0.0,0.0,73,0.00,,,0.00,VWS V14.01,2013-02-10 10:00:00,
2013-02-10 05:05:00,5.5,-1.2,29.91,NW,308,0.0,0.0,73,0.00,,,0.00,VWS V14.01,2013-02-10 10:05:00,
2013-02-10 05:09:00,4.5,-2.3,29.91,NW,308,0.0,0.0,73,0.00,,,0.00,VWS V14.01,2013-02-10 10:09:00,
2013-02-10 05:15:00,4.3,-2.4,29.91,NW,308,0.0,0.0,73,0.00,,,0.00,VWS V14.01,2013-02-10 10:15:00,
2013-02-10 05:20:00,4.3,-2.4,29.91,NW,308,0.0,0.0,73,0.00,,,0.00,VWS V14.01,2013-02-10 10:20:00,
2013-02-10 05:25:00,4.3,-2.4,29.91,NW,308,0.0,0.0,73,0.00,,,0.00,VWS V14.01,2013-02-10 10:25:00,
2013-02-10 05:30:00,4.3,-2.4,29.91,NW,308,0.0,0.0,73,0.00,,,0.00,VWS V14.01,2013-02-10 10:30:00,
2013-02-10 05:34:00,4.1,-2.6,29.91,NW,308,0.0,0.0,73,0.00,,,0.00,VWS V14.01,2013-02-10 10:34:00,
2013-02-10 05:39:00,3.9,-2.8,29.91,NW,308,0.0,0.0,73,0.00,,,0.00,VWS V14.01,2013-02-10 10:39:00,
2013-02-10 05:44:00,3.7,-3.0,29.91,NW,308,0.0,0.0,73,0.00,,,0.00,VWS V14.01,2013-02-10 10:44:00,
2013-02-10 05:49:00,3.7,-3.0,29.91,NW,308,0.0,0.0,73,0.00,,,0.00,VWS V14.01,2013-02-10 10:49:00,
2013-02-10 05:54:00,3.7,-3.0,29.91,NW,308,0.0,0.0,73,0.00,,,0.00,VWS V14.01,2013-02-10 10:54:00,
2013-02-10 05:59:00,3.7,-3.0,29.94,NW,308,0.0,0.0,73,0.00,,,0.00,VWS V14.01,2013-02-10 10:59:00,
2013-02-10 06:04:00,3.6,-3.1,29.94,NW,308,0.0,0.0,73,0.00,,,0.00,VWS V14.01,2013-02-10 11:04:00,
2013-02-10 06:09:00,3.6,-3.1,29.94,NW,308,0.0,0.0,73,0.00,,,0.00,VWS V14.01,2013-02-10 11:09:00,
2013-02-10 06:14:00,3.7,-3.0,29.94,NW,308,0.0,0.0,73,0.00,,,0.00,VWS V14.01,2013-02-10 11:14:00,
2013-02-10 06:19:00,3.7,-3.0,29.94,NW,308,0.0,0.0,73,0.00,,,0.00,VWS V14.01,2013-02-10 11:19:00,
2013-02-10 06:24:00,3.7,-3.0,29.94,NW,308,0.0,0.0,73,0.00,,,0.00,VWS V14.01,2013-02-10 11:24:00,
2013-02-10 06:29:00,2.8,-3.8,29.94,NW,308,0.0,0.0,73,0.00,,,0.00,VWS V14.01,2013-02-10 11:29:00,
2013-02-10 06:34:00,2.7,-4.0,29.94,NW,308,0.0,0.0,73,0.00,,,0.00,VWS V14.01,2013-02-10 11:34:00,
2013-02-10 06:39:00,2.5,-4.2,29.94,NW,308,0.0,0.0,73,0.00,,,0.00,VWS V14.01,2013-02-10 11:39:00,
2013-02-10 06:44:00,2.5,-4.2,29.94,NW,308,0.0,0.0,73,0.00,,,0.00,VWS V14.01,2013-02-10 11:44:00,
2013-02-10 06:49:00,2.1,-4.5,29.94,NW,308,0.0,0.0,73,0.00,,,0.00,VWS V14.01,2013-02-10 11:49:00,
2013-02-10 06:54:00,1.9,-4.7,29.94,NW,308,0.0,0.0,73,0.00,,,0.00,VWS V14.01,2013-02-10 11:54:00,
2013-02-10 06:59:00,1.9,-4.7,29.97,NW,308,0.0,0.0,73,0.00,,,0.00,VWS V14.01,2013-02-10 11:59:00,
2013-02-10 07:04:00,1.8,-4.9,29.97,NW,308,0.0,0.0,73,0.00,,,0.00,VWS V14.01,2013-02-10 12:04:00,
2013-02-10 07:09:00,1.6,-5.1,29.97,NW,308,0.0,0.0,73,0.00,,,0.00,VWS V14.01,2013-02-10 12:09:00,
2013-02-10 07:14:00,1.6,-5.1,29.97,NW,307,0.0,0.0,73,0.00,,,0.00,VWS V14.01,2013-02-10 12:14:00,
2013-02-10 07:19:00,1.6,-5.1,29.97,NW,308,0.0,0.0,73,0.00,,,0.00,VWS V14.01,2013-02-10 12:19:00,
2013-02-10 07:24:00,1.6,-5.1,29.97,NW,308,0.0,0.0,73,0.00,,,0.00,VWS V14.01,2013-02-10 12:24:00,
2013-02-10 07:29:00,2.1,-4.5,29.97,NW,307,0.0,0.0,73,0.00,,,0.00,VWS V14.01,2013-02-10 12:29:00,
2013-02-10 07:34:00,2.1,-4.5,29.97,NW,308,0.0,0.0,73,0.00,,,0.00,VWS V14.01,2013-02-10 12:34:00,
2013-02-10 07:39:00,4.1,-2.6,29.97,NW,308,0.0,0.0,73,0.00,,,0.00,VWS V14.01,2013-02-10 12:39:00,
2013-02-10 07:44:00,6.1,-0.7,29.97,NW,308,0.0,0.0,73,0.00,,,0.00,VWS V14.01,2013-02-10 12:44:00,
2013-02-10 07:49:00,6.4,-0.3,29.97,NW,308,0.0,0.0,73,0.00,,,0.00,VWS V14.01,2013-02-10 12:49:00,
2013-02-10 07:54:00,9.7,2.8,29.97,NW,308,0.0,0.0,73,0.00,,,0.00,VWS V14.01,2013-02-10 12:54:00,
2013-02-10 07:59:00,9.7,2.8,30.00,NW,308,0.0,0.0,73,0.00,,,0.00,VWS V14.01,2013-02-10 12:59:00,
2013-02-10 08:04:00,11.7,4.7,30.00,NW,308,0.0,0.0,73,0.00,,,0.00,VWS V14.01,2013-02-10 13:04:00,
2013-02-10 08:09:00,13.6,6.6,30.00,NW,308,0.0,0.0,73,0.00,,,0.00,VWS V14.01,2013-02-10 13:09:00,
2013-02-10 08:14:00,14.2,5.9,30.00,NW,308,0.0,0.0,69,0.00,,,0.00,VWS V14.01,2013-02-10 13:14:00,
2013-02-10 08:19:00,14.5,5.6,30.00,NW,311,0.0,0.0,67,0.00,,,0.00,VWS V14.01,2013-02-10 13:19:00,
2013-02-10 08:24:00,14.5,5.6,30.00,WNW,296,0.0,0.0,67,0.00,,,0.00,VWS V14.01,2013-02-10 13:24:00,
2013-02-10 08:29:00,16.7,4.1,30.00,NW,311,0.0,0.0,57,0.00,,,0.00,VWS V14.01,2013-02-10 13:29:00,
2013-02-10 08:34:00,17.4,4.8,30.00,NW,311,0.0,0.0,57,0.00,,,0.00,VWS V14.01,2013-02-10 13:34:00,
2013-02-10 08:39:00,18.3,5.3,30.00,WNW,298,0.0,0.0,56,0.00,,,0.00,VWS V14.01,2013-02-10 13:39:00,
2013-02-10 08:44:00,19.0,5.9,30.00,WNW,298,0.0,0.0,56,0.00,,,0.00,VWS V14.01,2013-02-10 13:44:00,
2013-02-10 08:49:00,19.4,6.3,30.00,WNW,297,0.0,0.0,56,0.00,,,0.00,VWS V14.01,2013-02-10 13:49:00,
2013-02-10 08:54:00,20.1,6.2,30.00,WNW,302,0.0,0.0,54,0.00,,,0.00,VWS V14.01,2013-02-10 13:54:00,
2013-02-10 08:59:00,20.1,6.2,30.00,WNW,290,0.0,0.0,54,0.00,,,0.00,VWS V14.01,2013-02-10 13:59:00,
2013-02-10 09:04:00,21.2,6.3,30.00,WNW,292,0.0,0.0,52,0.00,,,0.00,VWS V14.01,2013-02-10 14:04:00,
2013-02-10 09:09:00,22.1,7.6,30.00,WNW,292,0.0,0.0,53,0.00,,,0.00,VWS V14.01,2013-02-10 14:09:00,
2013-02-10 09:14:00,23.5,9.4,30.00,WNW,292,0.0,0.0,54,0.00,,,0.00,VWS V14.01,2013-02-10 14:14:00,
2013-02-10 09:19:00,24.3,9.6,30.00,WNW,292,0.0,0.0,53,0.00,,,0.00,VWS V14.01,2013-02-10 14:19:00,
2013-02-10 09:24:00,24.6,9.5,30.00,WSW,251,0.0,0.0,52,0.00,,,0.00,VWS V14.01,2013-02-10 14:24:00,
2013-02-10 09:29:00,24.6,9.5,30.03,WNW,299,0.0,0.0,52,0.00,,,0.00,VWS V14.01,2013-02-10 14:29:00,
2013-02-10 09:34:00,25.3,10.2,30.03,NW,319,0.0,0.0,52,0.00,,,0.00,VWS V14.01,2013-02-10 14:34:00,
2013-02-10 09:39:00,25.9,11.9,30.03,NW,312,0.0,0.0,55,0.00,,,0.00,VWS V14.01,2013-02-10 14:39:00,
2013-02-10 09:44:00,26.1,10.9,30.03,WNW,295,0.0,0.0,52,0.00,,,0.00,VWS V14.01,2013-02-10 14:44:00,
2013-02-10 09:49:00,26.1,10.9,30.03,WSW,258,0.0,0.0,52,0.00,,,0.00,VWS V14.01,2013-02-10 14:49:00,
2013-02-10 09:54:00,27.1,12.7,30.03,WNW,291,0.0,0.0,54,0.00,,,0.00,VWS V14.01,2013-02-10 14:54:00,
2013-02-10 09:59:00,28.6,14.9,30.03,WNW,288,0.0,0.0,56,0.00,,,0.00,VWS V14.01,2013-02-10 14:59:00,
2013-02-10 10:04:00,29.8,16.9,30.03,West,262,0.0,0.0,58,0.00,,,0.00,VWS V14.01,2013-02-10 15:04:00,
2013-02-10 10:09:00,30.6,18.3,30.03,NNW,329,0.0,0.0,60,0.00,,,0.00,VWS V14.01,2013-02-10 15:09:00,
2013-02-10 10:14:00,30.7,17.7,30.03,WNW,302,0.0,0.0,58,0.00,,,0.00,VWS V14.01,2013-02-10 15:14:00,
2013-02-10 10:19:00,30.6,17.1,30.03,WNW,289,0.0,0.0,57,0.00,,,0.00,VWS V14.01,2013-02-10 15:19:00,
2013-02-10 10:24:00,31.3,19.4,30.03,NW,319,0.0,0.0,61,0.00,,,0.00,VWS V14.01,2013-02-10 15:24:00,
2013-02-10 10:29:00,31.1,19.6,30.03,NNE,28,0.0,0.0,62,0.00,,,0.00,VWS V14.01,2013-02-10 15:29:00,
2013-02-10 10:34:00,32.2,22.1,30.03,NW,305,0.0,0.0,66,0.00,,,0.00,VWS V14.01,2013-02-10 15:34:00,
2013-02-10 10:39:00,32.2,22.1,30.03,WNW,297,0.0,0.0,66,0.00,,,0.00,VWS V14.01,2013-02-10 15:39:00,
2013-02-10 10:44:00,32.4,20.4,30.03,NW,304,2.7,2.7,61,0.00,,,0.00,VWS V14.01,2013-02-10 15:44:00,
2013-02-10 10:49:00,32.4,21.2,30.03,West,277,0.0,0.0,63,0.00,,,0.00,VWS V14.01,2013-02-10 15:49:00,
2013-02-10 10:54:00,32.7,21.9,30.03,SW,224,2.7,2.7,64,0.00,,,0.00,VWS V14.01,2013-02-10 15:54:00,
2013-02-10 10:59:00,32.9,22.4,30.03,NW,305,0.0,0.0,65,0.00,,,0.00,VWS V14.01,2013-02-10 15:59:00,
2013-02-10 11:04:00,32.9,22.1,30.03,NW,320,0.0,0.0,64,0.00,,,0.00,VWS V14.01,2013-02-10 16:04:00,
2013-02-10 11:09:00,33.3,22.0,30.03,NW,316,0.0,0.0,63,0.00,,,0.00,VWS V14.01,2013-02-10 16:09:00,
2013-02-10 11:14:00,34.0,22.4,30.03,NW,316,0.0,0.0,62,0.00,,,0.00,VWS V14.01,2013-02-10 16:14:00,
2013-02-10 11:19:00,34.0,22.4,30.03,West,279,0.0,0.0,62,0.00,,,0.00,VWS V14.01,2013-02-10 16:19:00,
2013-02-10 11:24:00,34.2,21.7,30.03,WNW,294,0.0,0.0,60,0.00,,,0.00,VWS V14.01,2013-02-10 16:24:00,
2013-02-10 11:29:00,34.2,21.7,30.03,SW,228,2.2,2.2,60,0.00,,,0.00,VWS V14.01,2013-02-10 16:29:00,
2013-02-10 11:34:00,34.3,21.5,30.03,NW,320,0.0,0.0,59,0.00,,,0.00,VWS V14.01,2013-02-10 16:34:00,
2013-02-10 11:39:00,34.5,21.3,30.03,ESE,118,0.0,0.0,58,0.00,,,0.00,VWS V14.01,2013-02-10 16:39:00,
2013-02-10 11:44:00,35.6,23.9,30.03,WNW,302,0.0,0.0,62,0.00,,,0.00,VWS V14.01,2013-02-10 16:44:00,
2013-02-10 11:49:00,35.4,22.5,30.03,NE,35,0.0,0.0,59,0.00,,,0.00,VWS V14.01,2013-02-10 16:49:00,
2013-02-10 11:54:00,35.4,22.5,30.03,ENE,60,0.0,0.0,59,0.00,,,0.00,VWS V14.01,2013-02-10 16:54:00,
2013-02-10 11:59:00,35.8,22.5,30.03,WNW,291,0.0,0.0,58,0.00,,,0.00,VWS V14.01,2013-02-10 16:59:00,
2013-02-10 12:04:00,36.0,23.4,30.03,NNW,338,0.0,0.0,60,0.00,,,0.00,VWS V14.01,2013-02-10 17:04:00,
2013-02-10 12:09:00,35.8,21.6,30.03,WNW,292,2.2,2.2,56,0.00,,,0.00,VWS V14.01,2013-02-10 17:09:00,
2013-02-10 12:14:00,35.4,20.9,30.03,WNW,302,4.0,4.0,55,0.00,,,0.00,VWS V14.01,2013-02-10 17:14:00,
2013-02-10 12:19:00,35.4,21.3,30.03,West,280,0.0,0.0,56,0.00,,,0.00,VWS V14.01,2013-02-10 17:19:00,
2013-02-10 12:24:00,35.8,21.6,30.03,NW,305,0.0,2.2,56,0.00,,,0.00,VWS V14.01,2013-02-10 17:24:00,
2013-02-10 12:29:00,36.7,21.2,30.03,SSW,203,0.0,0.0,53,0.00,,,0.00,VWS V14.01,2013-02-10 17:29:00,
2013-02-10 12:34:00,37.2,22.6,30.03,WNW,293,0.0,0.0,55,0.00,,,0.00,VWS V14.01,2013-02-10 17:34:00,
2013-02-10 12:39:00,37.4,22.7,30.03,NNW,338,0.0,0.0,55,0.00,,,0.00,VWS V14.01,2013-02-10 17:39:00,
2013-02-10 12:44:00,37.4,21.4,30.00,NW,304,0.0,0.0,52,0.00,,,0.00,VWS V14.01,2013-02-10 17:44:00,
2013-02-10 12:49:00,37.6,21.6,30.00,NW,314,0.0,0.0,52,0.00,,,0.00,VWS V14.01,2013-02-10 17:49:00,
2013-02-10 12:54:00,37.6,21.6,30.00,WNW,290,3.6,3.6,52,0.00,,,0.00,VWS V14.01,2013-02-10 17:54:00,
2013-02-10 12:59:00,37.8,19.9,30.00,West,276,2.7,2.7,48,0.00,,,0.00,VWS V14.01,2013-02-10 17:59:00,
2013-02-10 13:04:00,37.6,21.6,30.00,WNW,284,0.0,0.0,52,0.00,,,0.00,VWS V14.01,2013-02-10 18:04:00,
2013-02-10 13:09:00,37.8,22.2,30.00,NW,312,0.0,0.0,53,0.00,,,0.00,VWS V14.01,2013-02-10 18:09:00,
2013-02-10 13:14:00,38.1,21.1,30.00,West,281,0.0,0.0,50,0.00,,,0.00,VWS V14.01,2013-02-10 18:14:00,
2013-02-10 13:19:00,38.3,20.8,30.00,NW,321,0.0,0.0,49,0.00,,,0.00,VWS V14.01,2013-02-10 18:19:00,
2013-02-10 13:24:00,38.3,20.8,30.00,NW,304,0.0,0.0,49,0.00,,,0.00,VWS V14.01,2013-02-10 18:24:00,
2013-02-10 13:29:00,38.7,18.6,30.00,WSW,251,0.0,0.0,44,0.00,,,0.00,VWS V14.01,2013-02-10 18:29:00,
2013-02-10 13:34:00,38.8,20.4,30.00,ENE,66,0.0,0.0,47,0.00,,,0.00,VWS V14.01,2013-02-10 18:34:00,
2013-02-10 13:39:00,39.6,21.5,29.97,WSW,251,0.0,0.0,48,0.00,,,0.00,VWS V14.01,2013-02-10 18:39:00,
2013-02-10 13:44:00,39.6,21.5,29.97,WNW,287,0.0,0.0,48,0.00,,,0.00,VWS V14.01,2013-02-10 18:44:00,
2013-02-10 13:49:00,40.1,21.0,29.97,WNW,285,0.0,0.0,46,0.00,,,0.00,VWS V14.01,2013-02-10 18:49:00,
2013-02-10 13:54:00,39.7,18.0,29.97,WNW,286,0.0,0.0,41,0.00,,,0.00,VWS V14.01,2013-02-10 18:54:00,
2013-02-10 13:59:00,39.9,17.6,29.97,West,262,2.7,2.7,40,0.00,,,0.00,VWS V14.01,2013-02-10 18:59:00,
2013-02-10 14:04:00,40.1,17.7,29.97,West,272,0.0,0.0,40,0.00,,,0.00,VWS V14.01,2013-02-10 19:04:00,
2013-02-10 14:09:00,40.3,17.3,29.97,West,280,0.0,0.0,39,0.00,,,0.00,VWS V14.01,2013-02-10 19:09:00,
2013-02-10 14:14:00,40.5,17.5,29.97,SSE,167,0.0,0.0,39,0.00,,,0.00,VWS V14.01,2013-02-10 19:14:00,
2013-02-10 14:19:00,40.8,18.4,29.97,ENE,68,0.0,0.0,40,0.00,,,0.00,VWS V14.01,2013-02-10 19:19:00,
2013-02-10 14:24:00,41.0,18.0,29.97,West,272,0.0,0.0,39,0.00,,,0.00,VWS V14.01,2013-02-10 19:24:00,
2013-02-10 14:29:00,41.4,18.3,29.97,WNW,296,0.0,3.6,39,0.00,,,0.00,VWS V14.01,2013-02-10 19:29:00,
2013-02-10 14:34:00,41.4,18.3,29.97,WSW,245,0.0,0.0,39,0.00,,,0.00,VWS V14.01,2013-02-10 19:34:00,
2013-02-10 14:39:00,41.4,18.3,29.97,West,281,2.7,2.7,39,0.00,,,0.00,VWS V14.01,2013-02-10 19:39:00,
2013-02-10 14:44:00,41.2,15.6,29.97,WNW,284,2.2,2.2,35,0.00,,,0.00,VWS V14.01,2013-02-10 19:44:00,
2013-02-10 14:49:00,41.0,14.8,29.97,SW,226,0.0,0.0,34,0.00,,,0.00,VWS V14.01,2013-02-10 19:49:00,
2013-02-10 14:54:00,41.0,16.1,30.00,SW,236,0.0,0.0,36,0.00,,,0.00,VWS V14.01,2013-02-10 19:54:00,
2013-02-10 14:59:00,40.6,16.4,30.00,WSW,252,0.0,0.0,37,0.00,,,0.00,VWS V14.01,2013-02-10 19:59:00,
2013-02-10 15:04:00,40.5,15.0,30.00,WSW,244,0.0,0.0,35,0.00,,,0.00,VWS V14.01,2013-02-10 20:04:00,
2013-02-10 15:09:00,40.5,13.6,29.97,WSW,251,2.7,2.7,33,0.00,,,0.00,VWS V14.01,2013-02-10 20:09:00,
2013-02-10 15:14:00,40.3,13.5,29.97,West,267,0.0,0.0,33,0.00,,,0.00,VWS V14.01,2013-02-10 20:14:00,
2013-02-10 15:19:00,40.1,12.6,29.97,WSW,243,0.0,3.6,32,0.00,,,0.00,VWS V14.01,2013-02-10 20:19:00,
2013-02-10 15:24:00,40.1,12.6,29.97,WSW,242,3.1,3.1,32,0.00,,,0.00,VWS V14.01,2013-02-10 20:24:00,
2013-02-10 15:29:00,39.4,12.7,29.97,WNW,300,0.0,0.0,33,0.00,,,0.00,VWS V14.01,2013-02-10 20:29:00,
2013-02-10 15:34:00,39.2,11.1,30.00,WSW,244,0.0,0.0,31,0.00,,,0.00,VWS V14.01,2013-02-10 20:34:00,
2013-02-10 15:39:00,39.2,11.8,30.00,WSW,253,2.2,2.2,32,0.00,,,0.00,VWS V14.01,2013-02-10 20:39:00,
2013-02-10 15:44:00,39.0,11.7,30.00,WNW,285,0.0,0.0,32,0.00,,,0.00,VWS V14.01,2013-02-10 20:44:00,
2013-02-10 15:49:00,39.0,11.0,30.00,WNW,285,2.7,2.7,31,0.00,,,0.00,VWS V14.01,2013-02-10 20:49:00,
2013-02-10 15:54:00,39.0,11.0,30.00,West,260,0.0,0.0,31,0.00,,,0.00,VWS V14.01,2013-02-10 20:54:00,
2013-02-10 15:59:00,38.8,10.1,30.00,WNW,297,0.0,0.0,30,0.00,,,0.00,VWS V14.01,2013-02-10 20:59:00,
2013-02-10 16:04:00,38.8,10.1,30.00,West,281,0.0,0.0,30,0.00,,,0.00,VWS V14.01,2013-02-10 21:04:00,
2013-02-10 16:09:00,38.7,10.6,30.00,WSW,254,0.0,0.0,31,0.00,,,0.00,VWS V14.01,2013-02-10 21:09:00,
2013-02-10 16:14:00,38.7,10.6,30.00,WSW,243,0.0,0.0,31,0.00,,,0.00,VWS V14.01,2013-02-10 21:14:00,
2013-02-10 16:19:00,38.5,10.5,30.00,NW,326,0.0,0.0,31,0.00,,,0.00,VWS V14.01,2013-02-10 21:19:00,
2013-02-10 16:24:00,38.5,10.5,30.00,NW,326,0.0,0.0,31,0.00,,,0.00,VWS V14.01,2013-02-10 21:24:00,
2013-02-10 16:29:00,38.3,10.3,30.00,NW,326,0.0,0.0,31,0.00,,,0.00,VWS V14.01,2013-02-10 21:29:00,
2013-02-10 16:34:00,38.3,10.3,30.00,NW,326,0.0,0.0,31,0.00,,,0.00,VWS V14.01,2013-02-10 21:34:00,
2013-02-10 16:39:00,37.9,10.0,30.00,NW,326,0.0,0.0,31,0.00,,,0.00,VWS V14.01,2013-02-10 21:39:00,
2013-02-10 16:44:00,37.6,10.4,30.00,NW,326,0.0,0.0,32,0.00,,,0.00,VWS V14.01,2013-02-10 21:44:00,
2013-02-10 16:49:00,37.0,9.9,30.00,NW,326,0.0,0.0,32,0.00,,,0.00,VWS V14.01,2013-02-10 21:49:00,
2013-02-10 16:54:00,36.7,9.6,30.00,NW,326,0.0,0.0,32,0.00,,,0.00,VWS V14.01,2013-02-10 21:54:00,
2013-02-10 16:59:00,36.1,9.1,30.00,NW,326,0.0,0.0,32,0.00,,,0.00,VWS V14.01,2013-02-10 21:59:00,
2013-02-10 17:04:00,35.6,9.4,30.00,NW,326,0.0,0.0,33,0.00,,,0.00,VWS V14.01,2013-02-10 22:04:00,
2013-02-10 17:09:00,34.9,9.4,30.00,NW,326,0.0,0.0,34,0.00,,,0.00,VWS V14.01,2013-02-10 22:09:00,
2013-02-10 17:14:00,34.0,7.9,30.00,NW,326,0.0,0.0,33,0.00,,,0.00,VWS V14.01,2013-02-10 22:14:00,
2013-02-10 17:19:00,33.4,8.1,30.00,NW,326,0.0,0.0,34,0.00,,,0.00,VWS V14.01,2013-02-10 22:19:00,
2013-02-10 17:24:00,32.7,7.5,30.00,NW,326,0.0,0.0,34,0.00,,,0.00,VWS V14.01,2013-02-10 22:24:00,
2013-02-10 17:29:00,32.4,7.1,30.00,NW,326,0.0,0.0,34,0.00,,,0.00,VWS V14.01,2013-02-10 22:29:00,
2013-02-10 17:34:00,31.3,6.2,30.00,NW,326,0.0,0.0,34,0.00,,,0.00,VWS V14.01,2013-02-10 22:34:00,
2013-02-10 17:39:00,30.6,6.2,30.00,NW,326,0.0,0.0,35,0.00,,,0.00,VWS V14.01,2013-02-10 22:39:00,
2013-02-10 17:44:00,29.8,6.2,30.00,NW,326,0.0,0.0,36,0.00,,,0.00,VWS V14.01,2013-02-10 22:44:00,
2013-02-10 17:49:00,29.3,6.3,30.00,NW,326,0.0,0.0,37,0.00,,,0.00,VWS V14.01,2013-02-10 22:49:00,
2013-02-10 17:54:00,28.6,5.6,30.00,NW,326,0.0,0.0,37,0.00,,,0.00,VWS V14.01,2013-02-10 22:54:00,
2013-02-10 17:59:00,28.2,5.3,30.00,NW,326,0.0,0.0,37,0.00,,,0.00,VWS V14.01,2013-02-10 22:59:00,
2013-02-10 18:04:00,27.7,5.4,30.00,NW,326,0.0,0.0,38,0.00,,,0.00,VWS V14.01,2013-02-10 23:04:00,
2013-02-10 18:09:00,27.3,6.7,30.00,NW,326,0.0,0.0,41,0.00,,,0.00,VWS V14.01,2013-02-10 23:09:00,
2013-02-10 18:14:00,27.1,7.1,30.00,NW,326,0.0,0.0,42,0.00,,,0.00,VWS V14.01,2013-02-10 23:14:00,
2013-02-10 18:19:00,26.8,6.8,30.00,NW,326,0.0,0.0,42,0.00,,,0.00,VWS V14.01,2013-02-10 23:19:00,
2013-02-10 18:24:00,26.6,6.6,30.00,NW,326,0.0,0.0,42,0.00,,,0.00,VWS V14.01,2013-02-10 23:24:00,
2013-02-10 18:29:00,26.2,6.3,30.00,NW,326,0.0,0.0,42,0.00,,,0.00,VWS V14.01,2013-02-10 23:29:00,
2013-02-10 18:34:00,26.2,6.8,30.00,NW,326,0.0,0.0,43,0.00,,,0.00,VWS V14.01,2013-02-10 23:34:00,
2013-02-10 18:39:00,26.1,7.2,30.00,NW,326,0.0,0.0,44,0.00,,,0.00,VWS V14.01,2013-02-10 23:39:00,
2013-02-10 18:44:00,25.7,7.3,30.00,NW,326,0.0,0.0,45,0.00,,,0.00,VWS V14.01,2013-02-10 23:44:00,
2013-02-10 18:49:00,25.3,7.0,30.00,NW,326,0.0,0.0,45,0.00,,,0.00,VWS V14.01,2013-02-10 23:49:00,
2013-02-10 18:54:00,25.0,6.7,30.00,NW,326,0.0,0.0,45,0.00,,,0.00,VWS V14.01,2013-02-10 23:54:00,
2013-02-10 18:59:00,24.6,6.3,30.00,NW,326,0.0,0.0,45,0.00,,,0.00,VWS V14.01,2013-02-10 23:59:00,
2013-02-10 19:04:00,24.1,5.3,30.00,NW,326,0.0,0.0,44,0.00,,,0.00,VWS V14.01,2013-02-11 00:04:00,
2013-02-10 19:09:00,23.5,5.8,30.00,NW,326,0.0,0.0,46,0.00,,,0.00,VWS V14.01,2013-02-11 00:09:00,
2013-02-10 19:14:00,23.2,5.5,30.00,NW,326,0.0,0.0,46,0.00,,,0.00,VWS V14.01,2013-02-11 00:14:00,
2013-02-10 19:19:00,23.0,5.3,30.00,NW,326,0.0,0.0,46,0.00,,,0.00,VWS V14.01,2013-02-11 00:19:00,
2013-02-10 19:24:00,22.8,5.6,30.00,NW,326,0.0,0.0,47,0.00,,,0.00,VWS V14.01,2013-02-11 00:24:00,
2013-02-10 19:29:00,22.6,5.9,30.00,NW,326,0.0,0.0,48,0.00,,,0.00,VWS V14.01,2013-02-11 00:29:00,
2013-02-10 19:34:00,22.5,5.8,30.00,NW,326,0.0,0.0,48,0.00,,,0.00,VWS V14.01,2013-02-11 00:34:00,
2013-02-10 19:39:00,22.5,6.6,30.00,NW,326,0.0,0.0,50,0.00,,,0.00,VWS V14.01,2013-02-11 00:39:00,
2013-02-10 19:44:00,22.5,6.6,30.00,NW,326,0.0,0.0,50,0.00,,,0.00,VWS V14.01,2013-02-11 00:44:00,
2013-02-10 19:49:00,21.9,5.7,30.00,NW,326,0.0,0.0,49,0.00,,,0.00,VWS V14.01,2013-02-11 00:49:00,
2013-02-10 19:54:00,21.7,5.5,30.00,NW,326,0.0,0.0,49,0.00,,,0.00,VWS V14.01,2013-02-11 00:54:00,
2013-02-10 19:59:00,21.2,5.0,30.00,NW,326,0.0,0.0,49,0.00,,,0.00,VWS V14.01,2013-02-11 00:59:00,
2013-02-10 20:04:00,20.8,4.7,30.00,NW,326,0.0,0.0,49,0.00,,,0.00,VWS V14.01,2013-02-11 01:04:00,
2013-02-10 20:09:00,20.5,4.4,30.00,NW,326,0.0,0.0,49,0.00,,,0.00,VWS V14.01,2013-02-11 01:09:00,
2013-02-10 20:14:00,20.3,4.6,30.00,NW,326,0.0,0.0,50,0.00,,,0.00,VWS V14.01,2013-02-11 01:14:00,
2013-02-10 20:19:00,19.9,4.3,30.00,NW,326,0.0,0.0,50,0.00,,,0.00,VWS V14.01,2013-02-11 01:19:00,
2013-02-10 20:24:00,19.8,4.1,30.00,NW,326,0.0,0.0,50,0.00,,,0.00,VWS V14.01,2013-02-11 01:24:00,
2013-02-10 20:29:00,19.8,4.6,30.00,NW,326,0.0,0.0,51,0.00,,,0.00,VWS V14.01,2013-02-11 01:29:00,
2013-02-10 20:34:00,19.8,4.6,30.00,NW,326,0.0,0.0,51,0.00,,,0.00,VWS V14.01,2013-02-11 01:34:00,
2013-02-10 20:39:00,19.6,5.7,30.00,NW,326,0.0,0.0,54,0.00,,,0.00,VWS V14.01,2013-02-11 01:39:00,
2013-02-10 20:44:00,19.4,5.9,30.00,NW,326,0.0,0.0,55,0.00,,,0.00,VWS V14.01,2013-02-11 01:44:00,
2013-02-10 20:49:00,19.0,5.5,30.00,NW,326,0.0,0.0,55,0.00,,,0.00,VWS V14.01,2013-02-11 01:49:00,
2013-02-10 20:54:00,18.5,5.0,30.00,NW,326,0.0,0.0,55,0.00,,,0.00,VWS V14.01,2013-02-11 01:54:00,
2013-02-10 20:59:00,18.3,4.5,30.00,NW,326,0.0,0.0,54,0.00,,,0.00,VWS V14.01,2013-02-11 01:59:00,
2013-02-10 21:04:00,18.1,4.3,30.00,NW,326,0.0,0.0,54,0.00,,,0.00,VWS V14.01,2013-02-11 02:04:00,
2013-02-10 21:09:00,18.0,4.9,29.97,NW,326,0.0,0.0,56,0.00,,,0.00,VWS V14.01,2013-02-11 02:09:00,
2013-02-10 21:14:00,17.4,4.8,29.97,NW,326,0.0,0.0,57,0.00,,,0.00,VWS V14.01,2013-02-11 02:14:00,
2013-02-10 21:19:00,17.1,4.5,29.97,NW,326,0.0,0.0,57,0.00,,,0.00,VWS V14.01,2013-02-11 02:19:00,
2013-02-10 21:24:00,16.7,4.1,30.00,NW,326,0.0,0.0,57,0.00,,,0.00,VWS V14.01,2013-02-11 02:24:00,
2013-02-10 21:29:00,16.5,3.6,30.00,NW,326,0.0,0.0,56,0.00,,,0.00,VWS V14.01,2013-02-11 02:29:00,
2013-02-10 21:34:00,16.3,3.8,30.00,NW,326,0.0,0.0,57,0.00,,,0.00,VWS V14.01,2013-02-11 02:34:00,
2013-02-10 21:39:00,16.2,3.6,30.00,NW,326,0.0,0.0,57,0.00,,,0.00,VWS V14.01,2013-02-11 02:39:00,
2013-02-10 21:44:00,16.0,3.5,30.00,NW,326,0.0,0.0,57,0.00,,,0.00,VWS V14.01,2013-02-11 02:44:00,
2013-02-10 21:49:00,15.8,3.3,30.00,NW,326,0.0,0.0,57,0.00,,,0.00,VWS V14.01,2013-02-11 02:49:00,
2013-02-10 21:54:00,15.8,3.3,30.00,NW,326,0.0,0.0,57,0.00,,,0.00,VWS V14.01,2013-02-11 02:54:00,
2013-02-10 21:59:00,15.8,3.3,30.00,NW,326,0.0,0.0,57,0.00,,,0.00,VWS V14.01,2013-02-11 02:59:00,
2013-02-10 22:04:00,16.0,3.5,30.00,NW,326,0.0,0.0,57,0.00,,,0.00,VWS V14.01,2013-02-11 03:04:00,
2013-02-10 22:09:00,16.2,4.0,30.00,NW,326,0.0,0.0,58,0.00,,,0.00,VWS V14.01,2013-02-11 03:09:00,
2013-02-10 22:14:00,16.2,4.0,30.00,NW,326,0.0,0.0,58,0.00,,,0.00,VWS V14.01,2013-02-11 03:14:00,
2013-02-10 22:19:00,15.8,4.0,30.00,NW,326,0.0,0.0,59,0.00,,,0.00,VWS V14.01,2013-02-11 03:19:00,
2013-02-10 22:24:00,15.6,3.8,30.00,NW,326,0.0,0.0,59,0.00,,,0.00,VWS V14.01,2013-02-11 03:24:00,
2013-02-10 22:29:00,15.3,3.5,30.00,NW,326,0.0,0.0,59,0.00,,,0.00,VWS V14.01,2013-02-11 03:29:00,
2013-02-10 22:34:00,15.3,3.5,30.00,NW,326,0.0,0.0,59,0.00,,,0.00,VWS V14.01,2013-02-11 03:34:00,
2013-02-10 22:39:00,14.9,3.9,30.00,NW,326,0.0,0.0,61,0.00,,,0.00,VWS V14.01,2013-02-11 03:39:00,
2013-02-10 22:44:00,14.7,3.7,30.00,NW,326,0.0,0.0,61,0.00,,,0.00,VWS V14.01,2013-02-11 03:44:00,
2013-02-10 22:49:00,14.2,3.2,30.00,NW,326,0.0,0.0,61,0.00,,,0.00,VWS V14.01,2013-02-11 03:49:00,
2013-02-10 22:54:00,14.0,3.0,30.00,NW,326,0.0,0.0,61,0.00,,,0.00,VWS V14.01,2013-02-11 03:54:00,
2013-02-10 22:59:00,13.8,2.9,29.97,NW,326,0.0,0.0,61,0.00,,,0.00,VWS V14.01,2013-02-11 03:59:00,
2013-02-10 23:04:00,13.5,2.5,29.97,NW,326,0.0,0.0,61,0.00,,,0.00,VWS V14.01,2013-02-11 04:04:00,
2013-02-10 23:09:00,13.5,2.5,29.97,NW,326,0.0,0.0,61,0.00,,,0.00,VWS V14.01,2013-02-11 04:09:00,
2013-02-10 23:14:00,13.5,2.5,30.00,NW,326,0.0,0.0,61,0.00,,,0.00,VWS V14.01,2013-02-11 04:14:00,
2013-02-10 23:19:00,13.3,2.4,30.00,NW,326,0.0,0.0,61,0.00,,,0.00,VWS V14.01,2013-02-11 04:19:00,
2013-02-10 23:24:00,13.1,2.2,30.00,NW,326,0.0,0.0,61,0.00,,,0.00,VWS V14.01,2013-02-11 04:24:00,
2013-02-10 23:29:00,12.9,2.0,30.00,NW,326,0.0,0.0,61,0.00,,,0.00,VWS V14.01,2013-02-11 04:29:00,
2013-02-10 23:34:00,12.7,1.9,30.00,NW,326,0.0,0.0,61,0.00,,,0.00,VWS V14.01,2013-02-11 04:34:00,
2013-02-10 23:39:00,12.7,1.9,30.00,NW,326,0.0,0.0,61,0.00,,,0.00,VWS V14.01,2013-02-11 04:39:00,
2013-02-10 23:44:00,12.6,1.7,30.00,NW,326,0.0,0.0,61,0.00,,,0.00,VWS V14.01,2013-02-11 04:44:00,
2013-02-10 23:49:00,12.4,1.5,30.00,NW,326,0.0,0.0,61,0.00,,,0.00,VWS V14.01,2013-02-11 04:49:00,
2013-02-10 23:54:00,12.4,1.5,30.00,NW,326,0.0,0.0,61,0.00,,,0.00,VWS V14.01,2013-02-11 04:54:00,
2013-02-10 23:59:00,12.4,1.5,30.00,NW,326,0.0,0.0,61,0.00,,,0.00,VWS V14.01,2013-02-11 04:59:00,